Flight Track Log - Related Links

Times and Time Zones

All times are in EDT time to prevent confusion due to time zone crossing. See the SWA920 flight status page for this flight to view local times or setup timezone preferences in your user account.

Time Position Orientation Groundspeed Altitude Reporting Facility
EDT Latitude Longitude Course Direction KTS MPH feet Rate Location/Type
Sun 07:46:52 PM 32.9536 -79.9864 11° North 307 353 5,000  Level Jacksonville Center
Sun 07:47:52 PM 33.0344 -79.9614 15° North 312 359 8,800 3,450 Climbing Jacksonville Center
Sun 07:48:52 PM 33.1183 -79.8942 34° Northeast 308 354 11,900 1,550 Climbing Jacksonville Center
Sun 07:49:52 PM 33.2047 -79.8342 30° Northeast 330 380 11,900 1,050 Level Jacksonville Center
Sun 07:50:52 PM 33.2906 -79.7692 32° Northeast 349 402 14,000 1,650 Climbing Jacksonville Center
Sun 07:51:00 PM 33.3296 -79.9019 23° Northeast  Level FlightAware Approximate
Sun 07:51:52 PM 33.3808 -79.7014 32° Northeast 362 417 15,200  Level Jacksonville Center
Sun 07:52:52 PM 33.4750 -79.6331 31° Northeast 373 429 17,900 2,800 Climbing Jacksonville Center
Sun 07:53:52 PM 33.5692 -79.5597 33° Northeast 384 442 20,800 2,550 Climbing Jacksonville Center
Sun 07:54:52 PM 33.6653 -79.4864 32° Northeast 395 455 23,000 1,600 Climbing Jacksonville Center
Sun 07:55:52 PM 33.7614 -79.4178 31° Northeast 402 463 24,000 1,600 Climbing Jacksonville Center
Sun 07:56:52 PM 33.8636 -79.3411 32° Northeast 407 468 26,200 2,050 Climbing Jacksonville Center
Sun 07:57:52 PM 33.9742 -79.2617 31° Northeast 419 482 28,100 1,860 Climbing Jacksonville Center
Sun 08:00:12 PM 34.2192 -79.0753 32° Northeast 468 539 32,400 1,463 Climbing Washington Center
Sun 08:01:13 PM 34.3300 -78.9919 32° Northeast 468 539 33,000 295 Climbing Washington Center
Sun 08:02:14 PM 34.4486 -78.9314 23° Northeast 463 533 33,000  Level Washington Center
Sun 08:03:14 PM 34.5819 -78.8586 24° Northeast 460 529 33,000  Level Washington Center
Sun 08:04:15 PM 34.7025 -78.8003 22° Northeast 466 536 33,000 -203 Level Washington Center
Sun 08:05:12 PM 34.8211 -78.7392 23° Northeast 466 536 32,600 -667 Descending Washington Center
Sun 08:06:12 PM 34.9436 -78.6781 22° Northeast 461 531 31,700 -800 Descending Washington Center
Sun 08:07:12 PM 35.0619 -78.6167 23° Northeast 461 531 31,000 -347 Descending Washington Center
Sun 08:08:13 PM 35.1825 -78.5550 23° Northeast 461 531 31,000  Level Washington Center
Sun 08:09:13 PM 35.3053 -78.4908 23° Northeast 461 531 31,000  Level Washington Center
Sun 08:10:12 PM 35.4172 -78.4339 23° Northeast 472 543 31,000 -454 Level Washington Center
Sun 08:11:12 PM 35.5417 -78.3667 24° Northeast 477 549 30,100 -900 Descending Washington Center
Sun 08:12:12 PM 35.6664 -78.3019 23° Northeast 482 555 29,200 -545 Descending Washington Center
Sun 08:13:13 PM 35.7889 -78.2397 22° Northeast 482 555 29,000 -98 Descending Washington Center
Sun 08:14:14 PM 35.9153 -78.1747 23° Northeast 482 555 29,000  Level Washington Center
Sun 08:15:14 PM 36.0400 -78.1094 23° Northeast 482 555 29,000  Level Washington Center
Sun 08:16:14 PM 36.1664 -78.0414 23° Northeast 482 555 29,000  Level Washington Center
Sun 08:17:12 PM 36.2953 -77.9733 23° Northeast 482 555 29,000  Level Washington Center
Sun 08:18:13 PM 36.4300 -77.9050 22° Northeast 479 551 29,000  Level Washington Center
Sun 08:19:14 PM 36.5522 -77.8361 24° Northeast 474 545 29,000 -151 Level Washington Center
Sun 08:20:12 PM 36.6661 -77.7747 23° Northeast 480 552 28,700 -504 Descending Washington Center
Sun 08:21:13 PM 36.7925 -77.7083 23° Northeast 480 552 28,000 -1,240 Descending Washington Center
Sun 08:22:13 PM 36.9167 -77.6417 23° Northeast 480 552 26,200 -992 Descending Washington Center
Sun 08:23:14 PM 37.0347 -77.5769 24° Northeast 474 545 26,000 -298 Descending Washington Center
Sun 08:24:14 PM 37.1567 -77.5178 21° North 468 539 25,600 -712 Descending Washington Center
Sun 08:25:12 PM 37.2803 -77.4817 13° North 456 525 24,600 -1,017 Descending Washington Center
Sun 08:26:12 PM 37.4122 -77.4403 14° North 451 519 23,600 -793 Descending Washington Center
Sun 08:27:13 PM 37.5339 -77.4014 14° North 451 519 23,000 -295 Descending Washington Center
Sun 08:28:14 PM 37.6556 -77.3650 13° North 446 513 23,000  Level Washington Center
Sun 08:29:12 PM 37.7747 -77.3283 14° North 446 513 23,000  Level Washington Center
Sun 08:30:13 PM 37.8922 -77.2917 14° North 435 501 23,000 -50 Level Washington Center
Sun 08:31:13 PM 38.0117 -77.2547 14° North 435 501 22,900 -1,100 Descending Washington Center
Sun 08:32:13 PM 38.1203 -77.2256 12° North 435 501 20,800 -2,033 Descending Washington Center
Sun 08:33:14 PM 38.2461 -77.1833 15° North 430 495 18,800 -2,521 Descending Washington Center
Sun 08:34:12 PM 38.3467 -77.1511 14° North 425 489 15,800 -2,269 Descending Washington Center
Sun 08:35:13 PM 38.4372 -77.0733 34° Northeast 394 453 14,300 -1,820 Descending Washington Center
Sun 08:36:14 PM 38.5133 -76.9794 44° Northeast 383 441 12,100 -1,785 Descending Washington Center
Sun 08:37:14 PM 38.5875 -76.8931 42° Northeast 372 428 10,700 -1,000 Descending Washington Center
Sun 08:38:14 PM 38.6656 -76.7989 43° Northeast 357 411 10,100 -864 Descending Washington Center
Sun 08:39:12 PM 38.7119 -76.7303 49° Northeast 323 372 9,000 -1,160 Descending Washington Center
Sun 08:40:13 PM 38.7503 -76.6378 62° Northeast 302 348 7,800 -1,286 Descending Washington Center
Sun 08:40:36 PM 38.7833 -76.5833 52° Northeast 302 348 7,200 -1,735 Descending Potomac TRACON
Sun 08:41:36 PM 38.8333 -76.5333 38° Northeast 313 360 5,400 -1,400 Descending Potomac TRACON
Sun 08:42:36 PM 38.9167 -76.5667 343° North 292 336 4,400 -700 Descending Potomac TRACON
Sun 08:43:36 PM 38.9833 -76.6167 330° Northwest 280 322 4,000 -200 Descending Potomac TRACON
Sun 08:44:36 PM 39.0167 -76.7000 297° West 274 315 4,000  Level Potomac TRACON
Sun 08:45:30 PM 39.0500 -76.7667 303° West 259 298 4,000 -474 Level Potomac TRACON
Sun 08:46:30 PM 39.0833 -76.8500 297° West 236 272 3,100 -500 Descending Potomac TRACON
Sun 08:47:30 PM 39.1333 -76.9000 322° Northwest 221 254 3,000 -500 Descending Potomac TRACON
Sun 08:48:30 PM 39.1833 -76.9000 360° North 209 241 2,100 -496 Descending Potomac TRACON
Sun 08:49:31 PM 39.1833 -76.8500 90° East 169 194 2,000 -248 Descending Potomac TRACON
Sun 08:50:31 PM 39.1833 -76.7833 90° East 162 186 1,600 -550 Descending Potomac TRACON
Sun 08:51:31 PM 39.1833 -76.7333 90° East 131 151 900 -700 Descending Potomac TRACON
Sun 08:53:00 PM 39.1754 -76.6683 North  Level Estimated
Sun 09:00:00 PM 39.1754 -76.6683 North  Level Estimated
Sun 09:01:00 PM 39.1754 -76.6683 North  Level Estimated

Login

Don't have an account? Register now (free) for customized features, flight alerts, and more!